sensor_id;sensor_type;location;lat;lon;timestamp;P1;durP1;ratioP1;P2;durP2;ratioP2
44764;SDS011;30484;52.382;5.260;2023-06-14T00:00:56;7.65;;;3.30;;
44764;SDS011;30484;52.382;5.260;2023-06-14T00:03:26;11.68;;;3.67;;
44764;SDS011;30484;52.382;5.260;2023-06-14T00:05:55;7.63;;;3.55;;
44764;SDS011;30484;52.382;5.260;2023-06-14T00:08:23;9.52;;;3.13;;
44764;SDS011;30484;52.382;5.260;2023-06-14T00:10:54;8.95;;;2.90;;
44764;SDS011;30484;52.382;5.260;2023-06-14T00:13:22;9.23;;;3.35;;
44764;SDS011;30484;52.382;5.260;2023-06-14T00:15:51;14.45;;;4.13;;
44764;SDS011;30484;52.382;5.260;2023-06-14T00:18:21;9.90;;;3.13;;
44764;SDS011;30484;52.382;5.260;2023-06-14T00:20:55;14.98;;;3.65;;
44764;SDS011;30484;52.382;5.260;2023-06-14T00:23:24;10.35;;;3.00;;
44764;SDS011;30484;52.382;5.260;2023-06-14T00:25:55;11.60;;;3.60;;
44764;SDS011;30484;52.382;5.260;2023-06-14T00:28:23;9.70;;;3.35;;
44764;SDS011;30484;52.382;5.260;2023-06-14T00:30:53;9.18;;;3.00;;
44764;SDS011;30484;52.382;5.260;2023-06-14T00:33:23;14.60;;;3.72;;
44764;SDS011;30484;52.382;5.260;2023-06-14T00:35:52;10.65;;;3.25;;
44764;SDS011;30484;52.382;5.260;2023-06-14T00:38:22;10.70;;;2.97;;
44764;SDS011;30484;52.382;5.260;2023-06-14T00:40:50;14.05;;;3.45;;
44764;SDS011;30484;52.382;5.260;2023-06-14T00:43:20;7.05;;;3.00;;
44764;SDS011;30484;52.382;5.260;2023-06-14T00:45:50;6.57;;;2.97;;
44764;SDS011;30484;52.382;5.260;2023-06-14T00:48:19;10.93;;;3.88;;
44764;SDS011;30484;52.382;5.260;2023-06-14T00:50:49;10.38;;;3.25;;
44764;SDS011;30484;52.382;5.260;2023-06-14T00:53:20;9.00;;;3.40;;
44764;SDS011;30484;52.382;5.260;2023-06-14T00:55:51;13.95;;;3.30;;
44764;SDS011;30484;52.382;5.260;2023-06-14T00:58:21;10.93;;;3.30;;
44764;SDS011;30484;52.382;5.260;2023-06-14T01:00:50;9.98;;;3.28;;
44764;SDS011;30484;52.382;5.260;2023-06-14T01:03:19;8.10;;;2.97;;
44764;SDS011;30484;52.382;5.260;2023-06-14T01:05:53;14.93;;;3.63;;
44764;SDS011;30484;52.382;5.260;2023-06-14T01:08:39;15.13;;;3.43;;
44764;SDS011;30484;52.382;5.260;2023-06-14T01:11:22;6.32;;;2.97;;
44764;SDS011;30484;52.382;5.260;2023-06-14T01:13:57;6.68;;;3.05;;
44764;SDS011;30484;52.382;5.260;2023-06-14T01:16:30;12.43;;;3.10;;
44764;SDS011;30484;52.382;5.260;2023-06-14T01:19:03;13.13;;;3.20;;
44764;SDS011;30484;52.382;5.260;2023-06-14T01:21:33;16.52;;;3.47;;
44764;SDS011;30484;52.382;5.260;2023-06-14T01:24:10;9.63;;;3.03;;
44764;SDS011;30484;52.382;5.260;2023-06-14T01:26:39;10.85;;;2.90;;
44764;SDS011;30484;52.382;5.260;2023-06-14T01:29:12;7.00;;;3.15;;
44764;SDS011;30484;52.382;5.260;2023-06-14T01:31:44;10.00;;;3.17;;
44764;SDS011;30484;52.382;5.260;2023-06-14T01:34:15;6.38;;;2.78;;
44764;SDS011;30484;52.382;5.260;2023-06-14T01:36:44;11.35;;;3.78;;
44764;SDS011;30484;52.382;5.260;2023-06-14T01:39:19;7.82;;;3.25;;
44764;SDS011;30484;52.382;5.260;2023-06-14T01:41:48;7.75;;;2.88;;
44764;SDS011;30484;52.382;5.260;2023-06-14T01:44:19;8.20;;;3.03;;
44764;SDS011;30484;52.382;5.260;2023-06-14T01:46:50;13.07;;;2.85;;
44764;SDS011;30484;52.382;5.260;2023-06-14T01:49:20;8.50;;;3.55;;
44764;SDS011;30484;52.382;5.260;2023-06-14T01:51:48;17.85;;;3.13;;
44764;SDS011;30484;52.382;5.260;2023-06-14T01:54:19;13.52;;;2.78;;
44764;SDS011;30484;52.382;5.260;2023-06-14T01:56:49;9.18;;;3.40;;
44764;SDS011;30484;52.382;5.260;2023-06-14T01:59:18;8.45;;;2.70;;
44764;SDS011;30484;52.382;5.260;2023-06-14T02:01:47;11.65;;;2.97;;
44764;SDS011;30484;52.382;5.260;2023-06-14T02:04:16;7.85;;;2.53;;
44764;SDS011;30484;52.382;5.260;2023-06-14T02:06:45;14.85;;;3.40;;
44764;SDS011;30484;52.382;5.260;2023-06-14T02:09:14;12.45;;;3.20;;
44764;SDS011;30484;52.382;5.260;2023-06-14T02:11:45;17.88;;;3.10;;
44764;SDS011;30484;52.382;5.260;2023-06-14T02:14:15;8.48;;;2.70;;
44764;SDS011;30484;52.382;5.260;2023-06-14T02:16:44;16.92;;;3.30;;
44764;SDS011;30484;52.382;5.260;2023-06-14T02:19:16;9.93;;;3.03;;
44764;SDS011;30484;52.382;5.260;2023-06-14T02:21:45;11.38;;;3.15;;
44764;SDS011;30484;52.382;5.260;2023-06-14T02:24:14;7.03;;;2.78;;
44764;SDS011;30484;52.382;5.260;2023-06-14T02:26:43;7.03;;;2.95;;
44764;SDS011;30484;52.382;5.260;2023-06-14T02:29:13;10.05;;;2.95;;
44764;SDS011;30484;52.382;5.260;2023-06-14T02:31:43;10.82;;;3.40;;
44764;SDS011;30484;52.382;5.260;2023-06-14T02:34:13;12.25;;;3.20;;
44764;SDS011;30484;52.382;5.260;2023-06-14T02:36:43;5.93;;;3.03;;
44764;SDS011;30484;52.382;5.260;2023-06-14T02:39:14;10.35;;;2.88;;
44764;SDS011;30484;52.382;5.260;2023-06-14T02:41:44;10.05;;;2.78;;
44764;SDS011;30484;52.382;5.260;2023-06-14T02:44:14;6.70;;;2.63;;
44764;SDS011;30484;52.382;5.260;2023-06-14T02:46:45;6.10;;;2.67;;
44764;SDS011;30484;52.382;5.260;2023-06-14T02:49:14;14.20;;;3.05;;
44764;SDS011;30484;52.382;5.260;2023-06-14T02:51:45;7.82;;;2.63;;
44764;SDS011;30484;52.382;5.260;2023-06-14T02:54:13;11.70;;;2.72;;
44764;SDS011;30484;52.382;5.260;2023-06-14T02:56:42;13.10;;;3.03;;
44764;SDS011;30484;52.382;5.260;2023-06-14T02:59:12;6.75;;;2.60;;
44764;SDS011;30484;52.382;5.260;2023-06-14T03:01:43;15.25;;;3.45;;
44764;SDS011;30484;52.382;5.260;2023-06-14T03:04:11;8.13;;;2.72;;
44764;SDS011;30484;52.382;5.260;2023-06-14T03:06:40;8.45;;;3.08;;
44764;SDS011;30484;52.382;5.260;2023-06-14T03:09:11;4.63;;;2.67;;
44764;SDS011;30484;52.382;5.260;2023-06-14T03:11:40;7.75;;;3.15;;
44764;SDS011;30484;52.382;5.260;2023-06-14T03:14:08;13.43;;;3.25;;
44764;SDS011;30484;52.382;5.260;2023-06-14T03:16:38;9.77;;;3.22;;
44764;SDS011;30484;52.382;5.260;2023-06-14T03:19:10;5.25;;;2.83;;
44764;SDS011;30484;52.382;5.260;2023-06-14T03:21:39;8.35;;;2.92;;
44764;SDS011;30484;52.382;5.260;2023-06-14T03:24:11;9.18;;;2.70;;
44764;SDS011;30484;52.382;5.260;2023-06-14T03:26:42;7.78;;;2.90;;
44764;SDS011;30484;52.382;5.260;2023-06-14T03:29:11;12.32;;;3.22;;
44764;SDS011;30484;52.382;5.260;2023-06-14T03:31:55;13.82;;;3.47;;
44764;SDS011;30484;52.382;5.260;2023-06-14T03:34:28;8.43;;;2.55;;
44764;SDS011;30484;52.382;5.260;2023-06-14T03:36:57;6.03;;;2.97;;
44764;SDS011;30484;52.382;5.260;2023-06-14T03:39:25;10.18;;;3.22;;
44764;SDS011;30484;52.382;5.260;2023-06-14T03:41:54;11.23;;;3.17;;
44764;SDS011;30484;52.382;5.260;2023-06-14T03:44:22;8.07;;;3.00;;
44764;SDS011;30484;52.382;5.260;2023-06-14T03:46:51;6.03;;;2.85;;
44764;SDS011;30484;52.382;5.260;2023-06-14T03:49:20;9.10;;;3.10;;
44764;SDS011;30484;52.382;5.260;2023-06-14T03:51:50;10.48;;;3.05;;
44764;SDS011;30484;52.382;5.260;2023-06-14T03:54:18;9.02;;;3.25;;
44764;SDS011;30484;52.382;5.260;2023-06-14T03:56:51;7.78;;;3.00;;
44764;SDS011;30484;52.382;5.260;2023-06-14T03:59:21;9.00;;;2.95;;
44764;SDS011;30484;52.382;5.260;2023-06-14T04:01:50;11.75;;;2.92;;
44764;SDS011;30484;52.382;5.260;2023-06-14T04:04:20;7.63;;;3.08;;
44764;SDS011;30484;52.382;5.260;2023-06-14T04:07:05;9.43;;;3.75;;
44764;SDS011;30484;52.382;5.260;2023-06-14T04:09:35;5.13;;;2.88;;
44764;SDS011;30484;52.382;5.260;2023-06-14T04:12:04;6.65;;;2.95;;
44764;SDS011;30484;52.382;5.260;2023-06-14T04:14:35;7.05;;;3.40;;
44764;SDS011;30484;52.382;5.260;2023-06-14T04:17:04;7.50;;;3.20;;
44764;SDS011;30484;52.382;5.260;2023-06-14T04:19:34;8.02;;;2.95;;
44764;SDS011;30484;52.382;5.260;2023-06-14T04:22:05;17.13;;;3.10;;
44764;SDS011;30484;52.382;5.260;2023-06-14T04:24:37;7.47;;;3.15;;
44764;SDS011;30484;52.382;5.260;2023-06-14T04:27:06;9.20;;;2.85;;
44764;SDS011;30484;52.382;5.260;2023-06-14T04:29:35;7.72;;;2.88;;
44764;SDS011;30484;52.382;5.260;2023-06-14T04:32:06;13.00;;;3.38;;
44764;SDS011;30484;52.382;5.260;2023-06-14T04:34:36;8.27;;;3.22;;
44764;SDS011;30484;52.382;5.260;2023-06-14T04:37:07;8.40;;;3.33;;
44764;SDS011;30484;52.382;5.260;2023-06-14T04:39:38;13.80;;;3.28;;
44764;SDS011;30484;52.382;5.260;2023-06-14T04:42:08;11.68;;;2.97;;
44764;SDS011;30484;52.382;5.260;2023-06-14T04:44:38;7.75;;;2.90;;
44764;SDS011;30484;52.382;5.260;2023-06-14T04:47:07;7.15;;;3.10;;
44764;SDS011;30484;52.382;5.260;2023-06-14T04:49:39;8.23;;;2.75;;
44764;SDS011;30484;52.382;5.260;2023-06-14T04:52:08;5.38;;;2.72;;
44764;SDS011;30484;52.382;5.260;2023-06-14T04:54:39;14.82;;;3.47;;
44764;SDS011;30484;52.382;5.260;2023-06-14T04:57:09;12.52;;;3.20;;
44764;SDS011;30484;52.382;5.260;2023-06-14T04:59:40;6.93;;;2.72;;
44764;SDS011;30484;52.382;5.260;2023-06-14T05:02:10;6.35;;;2.95;;
44764;SDS011;30484;52.382;5.260;2023-06-14T05:04:40;12.10;;;3.00;;
44764;SDS011;30484;52.382;5.260;2023-06-14T05:07:10;8.90;;;3.13;;
44764;SDS011;30484;52.382;5.260;2023-06-14T05:09:38;7.60;;;3.08;;
44764;SDS011;30484;52.382;5.260;2023-06-14T05:12:08;19.75;;;3.10;;
44764;SDS011;30484;52.382;5.260;2023-06-14T05:14:37;10.18;;;3.65;;
44764;SDS011;30484;52.382;5.260;2023-06-14T05:17:05;9.90;;;3.03;;
44764;SDS011;30484;52.382;5.260;2023-06-14T05:19:34;11.70;;;3.50;;
44764;SDS011;30484;52.382;5.260;2023-06-14T05:22:03;9.10;;;2.95;;
44764;SDS011;30484;52.382;5.260;2023-06-14T05:24:33;5.57;;;3.17;;
44764;SDS011;30484;52.382;5.260;2023-06-14T05:27:01;8.68;;;3.20;;
44764;SDS011;30484;52.382;5.260;2023-06-14T05:29:29;7.38;;;3.03;;
44764;SDS011;30484;52.382;5.260;2023-06-14T05:31:58;11.57;;;3.35;;
44764;SDS011;30484;52.382;5.260;2023-06-14T05:34:26;16.98;;;3.65;;
44764;SDS011;30484;52.382;5.260;2023-06-14T05:36:59;10.10;;;3.00;;
44764;SDS011;30484;52.382;5.260;2023-06-14T05:39:28;5.63;;;3.00;;
44764;SDS011;30484;52.382;5.260;2023-06-14T05:42:05;12.80;;;3.17;;
44764;SDS011;30484;52.382;5.260;2023-06-14T05:44:35;9.02;;;3.13;;
44764;SDS011;30484;52.382;5.260;2023-06-14T05:47:08;8.57;;;3.20;;
44764;SDS011;30484;52.382;5.260;2023-06-14T05:49:41;5.40;;;3.17;;
44764;SDS011;30484;52.382;5.260;2023-06-14T05:52:10;13.00;;;3.13;;
44764;SDS011;30484;52.382;5.260;2023-06-14T05:54:39;13.30;;;3.55;;
44764;SDS011;30484;52.382;5.260;2023-06-14T05:57:10;6.40;;;3.47;;
44764;SDS011;30484;52.382;5.260;2023-06-14T05:59:39;10.95;;;3.67;;
44764;SDS011;30484;52.382;5.260;2023-06-14T06:02:07;7.15;;;2.95;;
44764;SDS011;30484;52.382;5.260;2023-06-14T06:04:36;5.13;;;3.03;;
44764;SDS011;30484;52.382;5.260;2023-06-14T06:07:05;5.93;;;2.92;;
44764;SDS011;30484;52.382;5.260;2023-06-14T06:09:34;9.73;;;3.10;;
44764;SDS011;30484;52.382;5.260;2023-06-14T06:12:04;8.57;;;3.15;;
44764;SDS011;30484;52.382;5.260;2023-06-14T06:14:36;5.32;;;3.00;;
44764;SDS011;30484;52.382;5.260;2023-06-14T06:17:07;14.82;;;3.28;;
44764;SDS011;30484;52.382;5.260;2023-06-14T06:19:36;7.72;;;3.13;;
44764;SDS011;30484;52.382;5.260;2023-06-14T06:22:04;15.23;;;3.20;;
44764;SDS011;30484;52.382;5.260;2023-06-14T06:24:34;7.75;;;3.20;;
44764;SDS011;30484;52.382;5.260;2023-06-14T06:27:03;10.43;;;3.03;;
44764;SDS011;30484;52.382;5.260;2023-06-14T06:29:34;13.07;;;3.00;;
44764;SDS011;30484;52.382;5.260;2023-06-14T06:32:05;7.20;;;3.47;;
44764;SDS011;30484;52.382;5.260;2023-06-14T06:34:34;12.32;;;3.10;;
44764;SDS011;30484;52.382;5.260;2023-06-14T06:37:03;8.23;;;3.50;;
44764;SDS011;30484;52.382;5.260;2023-06-14T06:39:33;7.80;;;3.42;;
44764;SDS011;30484;52.382;5.260;2023-06-14T06:42:04;10.07;;;3.25;;
44764;SDS011;30484;52.382;5.260;2023-06-14T06:44:37;7.68;;;2.97;;
44764;SDS011;30484;52.382;5.260;2023-06-14T06:47:06;9.82;;;3.25;;
44764;SDS011;30484;52.382;5.260;2023-06-14T06:49:36;11.93;;;3.33;;
44764;SDS011;30484;52.382;5.260;2023-06-14T06:52:05;12.38;;;3.10;;
44764;SDS011;30484;52.382;5.260;2023-06-14T06:54:34;6.05;;;3.08;;
44764;SDS011;30484;52.382;5.260;2023-06-14T06:57:03;12.10;;;3.72;;
44764;SDS011;30484;52.382;5.260;2023-06-14T06:59:32;10.20;;;3.53;;
44764;SDS011;30484;52.382;5.260;2023-06-14T07:02:05;6.07;;;2.90;;
44764;SDS011;30484;52.382;5.260;2023-06-14T07:04:34;6.03;;;3.00;;
44764;SDS011;30484;52.382;5.260;2023-06-14T07:07:06;6.85;;;3.00;;
44764;SDS011;30484;52.382;5.260;2023-06-14T07:09:37;11.15;;;3.05;;
44764;SDS011;30484;52.382;5.260;2023-06-14T07:12:07;7.63;;;2.90;;
44764;SDS011;30484;52.382;5.260;2023-06-14T07:14:37;8.15;;;3.00;;
44764;SDS011;30484;52.382;5.260;2023-06-14T07:17:07;9.07;;;2.95;;
44764;SDS011;30484;52.382;5.260;2023-06-14T07:19:37;8.73;;;2.97;;
44764;SDS011;30484;52.382;5.260;2023-06-14T07:22:05;4.82;;;2.70;;
44764;SDS011;30484;52.382;5.260;2023-06-14T07:24:34;15.40;;;3.25;;
44764;SDS011;30484;52.382;5.260;2023-06-14T07:27:04;10.30;;;2.85;;
44764;SDS011;30484;52.382;5.260;2023-06-14T07:29:40;4.07;;;2.70;;
44764;SDS011;30484;52.382;5.260;2023-06-14T07:32:20;9.38;;;2.67;;
44764;SDS011;30484;52.382;5.260;2023-06-14T07:34:51;7.13;;;2.47;;
44764;SDS011;30484;52.382;5.260;2023-06-14T07:37:20;13.93;;;3.03;;
44764;SDS011;30484;52.382;5.260;2023-06-14T07:39:52;8.48;;;2.50;;
44764;SDS011;30484;52.382;5.260;2023-06-14T07:42:37;4.63;;;2.08;;
44764;SDS011;30484;52.382;5.260;2023-06-14T07:45:07;9.45;;;3.00;;
44764;SDS011;30484;52.382;5.260;2023-06-14T07:47:51;7.75;;;2.65;;
44764;SDS011;30484;52.382;5.260;2023-06-14T07:50:23;7.60;;;2.25;;
44764;SDS011;30484;52.382;5.260;2023-06-14T07:52:54;3.60;;;2.10;;
44764;SDS011;30484;52.382;5.260;2023-06-14T07:55:28;14.15;;;2.50;;
44764;SDS011;30484;52.382;5.260;2023-06-14T07:58:14;5.00;;;2.42;;
44764;SDS011;30484;52.382;5.260;2023-06-14T08:00:45;8.80;;;2.88;;
44764;SDS011;30484;52.382;5.260;2023-06-14T08:03:17;8.32;;;2.08;;
44764;SDS011;30484;52.382;5.260;2023-06-14T08:05:46;15.27;;;2.83;;
44764;SDS011;30484;52.382;5.260;2023-06-14T08:08:16;9.48;;;2.50;;
44764;SDS011;30484;52.382;5.260;2023-06-14T08:10:46;5.32;;;2.50;;
44764;SDS011;30484;52.382;5.260;2023-06-14T08:13:16;6.65;;;2.00;;
44764;SDS011;30484;52.382;5.260;2023-06-14T08:15:51;4.45;;;2.33;;
44764;SDS011;30484;52.382;5.260;2023-06-14T08:18:21;3.80;;;2.15;;
44764;SDS011;30484;52.382;5.260;2023-06-14T08:20:50;6.78;;;2.53;;
44764;SDS011;30484;52.382;5.260;2023-06-14T08:23:20;9.43;;;2.17;;
44764;SDS011;30484;52.382;5.260;2023-06-14T08:25:49;2.70;;;1.67;;
44764;SDS011;30484;52.382;5.260;2023-06-14T08:28:18;4.22;;;1.85;;
44764;SDS011;30484;52.382;5.260;2023-06-14T08:30:46;5.00;;;2.25;;
44764;SDS011;30484;52.382;5.260;2023-06-14T08:33:15;5.50;;;1.90;;
44764;SDS011;30484;52.382;5.260;2023-06-14T08:35:48;5.20;;;1.73;;
44764;SDS011;30484;52.382;5.260;2023-06-14T08:38:24;14.10;;;2.22;;
44764;SDS011;30484;52.382;5.260;2023-06-14T08:40:53;6.85;;;2.05;;
44764;SDS011;30484;52.382;5.260;2023-06-14T08:43:34;7.55;;;1.83;;
44764;SDS011;30484;52.382;5.260;2023-06-14T08:46:03;10.68;;;1.90;;
44764;SDS011;30484;52.382;5.260;2023-06-14T08:48:43;3.17;;;1.80;;
44764;SDS011;30484;52.382;5.260;2023-06-14T08:51:13;5.18;;;1.90;;
44764;SDS011;30484;52.382;5.260;2023-06-14T08:53:43;5.70;;;1.90;;
44764;SDS011;30484;52.382;5.260;2023-06-14T08:56:12;2.92;;;1.88;;
44764;SDS011;30484;52.382;5.260;2023-06-14T08:58:42;3.17;;;1.77;;
44764;SDS011;30484;52.382;5.260;2023-06-14T09:01:11;4.65;;;1.92;;
44764;SDS011;30484;52.382;5.260;2023-06-14T09:03:43;8.77;;;1.88;;
44764;SDS011;30484;52.382;5.260;2023-06-14T09:06:13;2.30;;;1.67;;
44764;SDS011;30484;52.382;5.260;2023-06-14T09:08:49;2.58;;;1.85;;
44764;SDS011;30484;52.382;5.260;2023-06-14T09:11:21;4.07;;;1.67;;
44764;SDS011;30484;52.382;5.260;2023-06-14T09:13:50;7.28;;;1.80;;
44764;SDS011;30484;52.382;5.260;2023-06-14T09:16:19;8.10;;;2.05;;
44764;SDS011;30484;52.382;5.260;2023-06-14T09:18:48;5.65;;;1.65;;
44764;SDS011;30484;52.382;5.260;2023-06-14T09:21:21;3.70;;;1.85;;
44764;SDS011;30484;52.382;5.260;2023-06-14T09:23:52;10.50;;;1.90;;
44764;SDS011;30484;52.382;5.260;2023-06-14T09:26:22;13.60;;;2.10;;
44764;SDS011;30484;52.382;5.260;2023-06-14T09:28:54;4.65;;;1.85;;
44764;SDS011;30484;52.382;5.260;2023-06-14T09:31:24;6.88;;;2.33;;
44764;SDS011;30484;52.382;5.260;2023-06-14T09:34:02;3.88;;;2.00;;
44764;SDS011;30484;52.382;5.260;2023-06-14T09:36:42;7.10;;;2.00;;
44764;SDS011;30484;52.382;5.260;2023-06-14T09:39:17;6.22;;;1.90;;
44764;SDS011;30484;52.382;5.260;2023-06-14T09:41:57;4.88;;;1.83;;
44764;SDS011;30484;52.382;5.260;2023-06-14T09:44:35;6.55;;;2.15;;
44764;SDS011;30484;52.382;5.260;2023-06-14T09:47:15;4.43;;;1.63;;
44764;SDS011;30484;52.382;5.260;2023-06-14T09:50:05;6.47;;;1.60;;
44764;SDS011;30484;52.382;5.260;2023-06-14T09:52:38;3.42;;;1.80;;
44764;SDS011;30484;52.382;5.260;2023-06-14T09:55:12;3.58;;;1.60;;
44764;SDS011;30484;52.382;5.260;2023-06-14T09:57:43;2.72;;;1.85;;
44764;SDS011;30484;52.382;5.260;2023-06-14T10:00:19;5.40;;;2.30;;
44764;SDS011;30484;52.382;5.260;2023-06-14T10:03:03;3.45;;;1.85;;
44764;SDS011;30484;52.382;5.260;2023-06-14T10:05:39;5.03;;;1.90;;
44764;SDS011;30484;52.382;5.260;2023-06-14T10:08:18;3.35;;;1.83;;
44764;SDS011;30484;52.382;5.260;2023-06-14T10:10:57;4.40;;;1.60;;
44764;SDS011;30484;52.382;5.260;2023-06-14T10:13:28;5.05;;;1.60;;
44764;SDS011;30484;52.382;5.260;2023-06-14T10:16:04;5.47;;;1.73;;
44764;SDS011;30484;52.382;5.260;2023-06-14T10:18:45;4.03;;;1.80;;
44764;SDS011;30484;52.382;5.260;2023-06-14T10:21:22;1.70;;;1.38;;
44764;SDS011;30484;52.382;5.260;2023-06-14T10:24:15;3.30;;;1.70;;
44764;SDS011;30484;52.382;5.260;2023-06-14T10:26:50;3.22;;;1.60;;
44764;SDS011;30484;52.382;5.260;2023-06-14T10:29:24;4.93;;;1.65;;
44764;SDS011;30484;52.382;5.260;2023-06-14T10:31:59;8.98;;;1.70;;
44764;SDS011;30484;52.382;5.260;2023-06-14T10:34:30;5.05;;;1.65;;
44764;SDS011;30484;52.382;5.260;2023-06-14T10:37:06;4.30;;;1.80;;
44764;SDS011;30484;52.382;5.260;2023-06-14T10:39:42;2.58;;;1.73;;
44764;SDS011;30484;52.382;5.260;2023-06-14T10:42:17;6.72;;;1.92;;
44764;SDS011;30484;52.382;5.260;2023-06-14T10:44:52;6.47;;;2.20;;
44764;SDS011;30484;52.382;5.260;2023-06-14T10:47:25;2.90;;;1.58;;
44764;SDS011;30484;52.382;5.260;2023-06-14T10:50:03;4.25;;;1.73;;
44764;SDS011;30484;52.382;5.260;2023-06-14T10:52:39;8.68;;;1.60;;
44764;SDS011;30484;52.382;5.260;2023-06-14T10:55:14;4.07;;;1.87;;
44764;SDS011;30484;52.382;5.260;2023-06-14T10:57:46;4.93;;;1.70;;
44764;SDS011;30484;52.382;5.260;2023-06-14T11:00:24;4.00;;;1.83;;
44764;SDS011;30484;52.382;5.260;2023-06-14T11:03:23;5.00;;;1.85;;
44764;SDS011;30484;52.382;5.260;2023-06-14T11:06:16;4.82;;;1.67;;
44764;SDS011;30484;52.382;5.260;2023-06-14T11:19:35;3.85;;;1.67;;
44764;SDS011;30484;52.382;5.260;2023-06-14T11:22:05;3.13;;;1.58;;
44764;SDS011;30484;52.382;5.260;2023-06-14T11:24:34;4.95;;;1.90;;
44764;SDS011;30484;52.382;5.260;2023-06-14T11:27:03;3.25;;;1.63;;
44764;SDS011;30484;52.382;5.260;2023-06-14T11:29:47;2.47;;;1.40;;
44764;SDS011;30484;52.382;5.260;2023-06-14T11:32:18;3.67;;;1.63;;
44764;SDS011;30484;52.382;5.260;2023-06-14T11:34:47;5.57;;;1.45;;
44764;SDS011;30484;52.382;5.260;2023-06-14T11:37:17;2.67;;;1.40;;
44764;SDS011;30484;52.382;5.260;2023-06-14T11:39:46;4.50;;;1.50;;
44764;SDS011;30484;52.382;5.260;2023-06-14T11:42:15;4.63;;;1.40;;
44764;SDS011;30484;52.382;5.260;2023-06-14T11:44:45;7.25;;;1.75;;
44764;SDS011;30484;52.382;5.260;2023-06-14T11:47:15;2.05;;;1.58;;
44764;SDS011;30484;52.382;5.260;2023-06-14T11:49:52;9.00;;;1.80;;
44764;SDS011;30484;52.382;5.260;2023-06-14T11:52:21;2.72;;;1.58;;
44764;SDS011;30484;52.382;5.260;2023-06-14T11:54:50;3.22;;;1.48;;
44764;SDS011;30484;52.382;5.260;2023-06-14T11:57:19;3.90;;;1.50;;
44764;SDS011;30484;52.382;5.260;2023-06-14T11:59:50;4.50;;;1.52;;
44764;SDS011;30484;52.382;5.260;2023-06-14T12:05:43;5.43;;;1.65;;
44764;SDS011;30484;52.382;5.260;2023-06-14T12:08:12;3.22;;;1.77;;
44764;SDS011;30484;52.382;5.260;2023-06-14T12:10:50;3.58;;;1.63;;
44764;SDS011;30484;52.382;5.260;2023-06-14T12:13:22;2.72;;;1.38;;
44764;SDS011;30484;52.382;5.260;2023-06-14T12:15:54;3.75;;;1.77;;
44764;SDS011;30484;52.382;5.260;2023-06-14T12:18:34;3.50;;;1.40;;
44764;SDS011;30484;52.382;5.260;2023-06-14T12:21:04;4.43;;;1.30;;
44764;SDS011;30484;52.382;5.260;2023-06-14T12:23:43;3.35;;;1.42;;
44764;SDS011;30484;52.382;5.260;2023-06-14T12:26:21;5.85;;;1.70;;
44764;SDS011;30484;52.382;5.260;2023-06-14T12:28:52;3.10;;;1.52;;
44764;SDS011;30484;52.382;5.260;2023-06-14T12:31:26;2.83;;;1.55;;
44764;SDS011;30484;52.382;5.260;2023-06-14T12:33:57;2.42;;;1.30;;
44764;SDS011;30484;52.382;5.260;2023-06-14T12:36:26;5.03;;;1.58;;
44764;SDS011;30484;52.382;5.260;2023-06-14T12:38:55;2.85;;;1.58;;
44764;SDS011;30484;52.382;5.260;2023-06-14T12:41:24;5.45;;;1.60;;
44764;SDS011;30484;52.382;5.260;2023-06-14T12:44:00;3.65;;;1.50;;
44764;SDS011;30484;52.382;5.260;2023-06-14T12:46:31;2.80;;;1.48;;
44764;SDS011;30484;52.382;5.260;2023-06-14T12:49:03;3.92;;;1.38;;
44764;SDS011;30484;52.382;5.260;2023-06-14T12:51:32;6.57;;;1.58;;
44764;SDS011;30484;52.382;5.260;2023-06-14T12:54:07;6.97;;;1.67;;
44764;SDS011;30484;52.382;5.260;2023-06-14T12:56:37;4.55;;;1.60;;
44764;SDS011;30484;52.382;5.260;2023-06-14T12:59:07;4.60;;;1.55;;
44764;SDS011;30484;52.382;5.260;2023-06-14T13:01:38;2.78;;;1.70;;
44764;SDS011;30484;52.382;5.260;2023-06-14T13:04:13;6.93;;;1.83;;
44764;SDS011;30484;52.382;5.260;2023-06-14T13:06:42;5.18;;;1.65;;
44764;SDS011;30484;52.382;5.260;2023-06-14T13:09:11;3.72;;;1.73;;
44764;SDS011;30484;52.382;5.260;2023-06-14T13:11:41;3.60;;;2.00;;
44764;SDS011;30484;52.382;5.260;2023-06-14T13:14:22;4.88;;;1.48;;
44764;SDS011;30484;52.382;5.260;2023-06-14T13:16:52;10.07;;;1.80;;
44764;SDS011;30484;52.382;5.260;2023-06-14T13:19:26;5.85;;;1.52;;
44764;SDS011;30484;52.382;5.260;2023-06-14T13:21:56;4.97;;;1.88;;
44764;SDS011;30484;52.382;5.260;2023-06-14T13:24:30;3.17;;;1.42;;
44764;SDS011;30484;52.382;5.260;2023-06-14T13:27:01;4.50;;;1.42;;
44764;SDS011;30484;52.382;5.260;2023-06-14T13:29:32;5.32;;;1.50;;
44764;SDS011;30484;52.382;5.260;2023-06-14T13:32:03;5.15;;;1.48;;
44764;SDS011;30484;52.382;5.260;2023-06-14T13:34:44;4.68;;;1.42;;
44764;SDS011;30484;52.382;5.260;2023-06-14T13:37:14;3.72;;;1.63;;
44764;SDS011;30484;52.382;5.260;2023-06-14T13:39:51;3.03;;;1.40;;
44764;SDS011;30484;52.382;5.260;2023-06-14T13:42:21;2.05;;;1.38;;
44764;SDS011;30484;52.382;5.260;2023-06-14T13:44:50;3.33;;;1.70;;
44764;SDS011;30484;52.382;5.260;2023-06-14T13:47:19;4.63;;;1.50;;
44764;SDS011;30484;52.382;5.260;2023-06-14T13:49:50;4.05;;;1.55;;
44764;SDS011;30484;52.382;5.260;2023-06-14T13:52:19;7.07;;;1.30;;
44764;SDS011;30484;52.382;5.260;2023-06-14T13:54:53;1.90;;;1.45;;
44764;SDS011;30484;52.382;5.260;2023-06-14T13:57:22;6.85;;;1.40;;
44764;SDS011;30484;52.382;5.260;2023-06-14T13:59:55;3.38;;;1.55;;
44764;SDS011;30484;52.382;5.260;2023-06-14T14:02:30;3.03;;;1.50;;
44764;SDS011;30484;52.382;5.260;2023-06-14T14:05:06;1.80;;;1.20;;
44764;SDS011;30484;52.382;5.260;2023-06-14T14:07:43;5.95;;;1.55;;
44764;SDS011;30484;52.382;5.260;2023-06-14T14:10:13;6.13;;;1.70;;
44764;SDS011;30484;52.382;5.260;2023-06-14T14:12:47;6.00;;;1.75;;
44764;SDS011;30484;52.382;5.260;2023-06-14T14:15:18;3.20;;;1.67;;
44764;SDS011;30484;52.382;5.260;2023-06-14T14:17:47;3.13;;;1.40;;
44764;SDS011;30484;52.382;5.260;2023-06-14T14:20:21;4.80;;;1.50;;
44764;SDS011;30484;52.382;5.260;2023-06-14T14:22:54;2.45;;;1.50;;
44764;SDS011;30484;52.382;5.260;2023-06-14T14:25:23;3.60;;;1.52;;
44764;SDS011;30484;52.382;5.260;2023-06-14T14:27:54;5.30;;;1.55;;
44764;SDS011;30484;52.382;5.260;2023-06-14T14:30:27;7.95;;;1.42;;
44764;SDS011;30484;52.382;5.260;2023-06-14T14:33:15;6.43;;;1.60;;
44764;SDS011;30484;52.382;5.260;2023-06-14T14:35:51;2.85;;;1.73;;
44764;SDS011;30484;52.382;5.260;2023-06-14T14:38:21;8.18;;;1.38;;
44764;SDS011;30484;52.382;5.260;2023-06-14T14:40:53;3.35;;;1.70;;
44764;SDS011;30484;52.382;5.260;2023-06-14T14:43:23;4.25;;;1.42;;
44764;SDS011;30484;52.382;5.260;2023-06-14T14:45:53;6.40;;;1.25;;
44764;SDS011;30484;52.382;5.260;2023-06-14T14:48:24;5.68;;;1.48;;
44764;SDS011;30484;52.382;5.260;2023-06-14T14:50:59;3.90;;;1.60;;
44764;SDS011;30484;52.382;5.260;2023-06-14T14:53:30;11.63;;;1.60;;
44764;SDS011;30484;52.382;5.260;2023-06-14T14:55:59;4.82;;;1.50;;
44764;SDS011;30484;52.382;5.260;2023-06-14T14:58:32;6.78;;;1.48;;
44764;SDS011;30484;52.382;5.260;2023-06-14T15:01:13;2.47;;;1.38;;
44764;SDS011;30484;52.382;5.260;2023-06-14T15:03:43;5.40;;;1.52;;
44764;SDS011;30484;52.382;5.260;2023-06-14T15:06:16;5.35;;;1.50;;
44764;SDS011;30484;52.382;5.260;2023-06-14T15:08:45;9.60;;;1.55;;
44764;SDS011;30484;52.382;5.260;2023-06-14T15:11:15;3.42;;;1.38;;
44764;SDS011;30484;52.382;5.260;2023-06-14T15:13:47;2.70;;;1.40;;
44764;SDS011;30484;52.382;5.260;2023-06-14T15:16:17;4.57;;;1.42;;
44764;SDS011;30484;52.382;5.260;2023-06-14T15:18:46;2.97;;;1.30;;
44764;SDS011;30484;52.382;5.260;2023-06-14T15:21:16;6.80;;;1.30;;
44764;SDS011;30484;52.382;5.260;2023-06-14T15:23:45;9.40;;;1.23;;
44764;SDS011;30484;52.382;5.260;2023-06-14T15:26:14;5.60;;;1.50;;